sensor_id;sensor_type;location;lat;lon;timestamp;temperature;humidity
15455;DHT22;21057;51.024;7.540;2022-08-25T00:02:05;22.80;62.00
15455;DHT22;21057;51.024;7.540;2022-08-25T00:04:33;22.80;61.80
15455;DHT22;21057;51.024;7.540;2022-08-25T00:07:01;22.80;61.80
15455;DHT22;21057;51.024;7.540;2022-08-25T00:09:28;22.80;61.60
15455;DHT22;21057;51.024;7.540;2022-08-25T00:11:55;22.80;61.90
15455;DHT22;21057;51.024;7.540;2022-08-25T00:14:26;22.90;61.00
15455;DHT22;21057;51.024;7.540;2022-08-25T00:16:55;23.10;60.70
15455;DHT22;21057;51.024;7.540;2022-08-25T00:19:25;23.00;60.90
15455;DHT22;21057;51.024;7.540;2022-08-25T00:21:53;23.00;60.60
15455;DHT22;21057;51.024;7.540;2022-08-25T00:24:20;23.00;60.80
15455;DHT22;21057;51.024;7.540;2022-08-25T00:26:50;23.20;60.40
15455;DHT22;21057;51.024;7.540;2022-08-25T00:29:17;23.20;60.00
15455;DHT22;21057;51.024;7.540;2022-08-25T00:31:44;23.20;60.80
15455;DHT22;21057;51.024;7.540;2022-08-25T00:34:16;23.20;60.70
15455;DHT22;21057;51.024;7.540;2022-08-25T00:36:43;23.10;61.10
15455;DHT22;21057;51.024;7.540;2022-08-25T00:39:12;23.10;61.20
15455;DHT22;21057;51.024;7.540;2022-08-25T00:41:41;23.10;61.80
15455;DHT22;21057;51.024;7.540;2022-08-25T00:44:10;23.20;62.00
15455;DHT22;21057;51.024;7.540;2022-08-25T00:46:43;23.00;61.60
15455;DHT22;21057;51.024;7.540;2022-08-25T00:49:15;23.00;62.10
15455;DHT22;21057;51.024;7.540;2022-08-25T00:51:47;22.80;62.30
15455;DHT22;21057;51.024;7.540;2022-08-25T00:54:17;22.80;62.40
15455;DHT22;21057;51.024;7.540;2022-08-25T00:56:45;22.90;62.50
15455;DHT22;21057;51.024;7.540;2022-08-25T00:59:13;22.80;62.90
15455;DHT22;21057;51.024;7.540;2022-08-25T01:01:41;22.80;62.80
15455;DHT22;21057;51.024;7.540;2022-08-25T01:04:08;22.80;62.90
15455;DHT22;21057;51.024;7.540;2022-08-25T01:06:40;22.80;63.20
15455;DHT22;21057;51.024;7.540;2022-08-25T01:09:08;22.80;63.10
15455;DHT22;21057;51.024;7.540;2022-08-25T01:11:35;22.90;63.10
15455;DHT22;21057;51.024;7.540;2022-08-25T01:14:03;23.00;63.30
15455;DHT22;21057;51.024;7.540;2022-08-25T01:16:32;22.90;63.10
15455;DHT22;21057;51.024;7.540;2022-08-25T01:18:59;22.90;64.00
15455;DHT22;21057;51.024;7.540;2022-08-25T01:21:30;22.90;63.50
15455;DHT22;21057;51.024;7.540;2022-08-25T01:23:59;22.80;63.60
15455;DHT22;21057;51.024;7.540;2022-08-25T01:26:28;22.80;64.00
15455;DHT22;21057;51.024;7.540;2022-08-25T01:28:57;22.80;64.00
15455;DHT22;21057;51.024;7.540;2022-08-25T01:31:42;22.80;64.20
15455;DHT22;21057;51.024;7.540;2022-08-25T01:34:11;22.70;64.50
15455;DHT22;21057;51.024;7.540;2022-08-25T01:36:41;22.70;64.60
15455;DHT22;21057;51.024;7.540;2022-08-25T01:39:09;22.70;64.60
15455;DHT22;21057;51.024;7.540;2022-08-25T01:41:44;22.70;65.10
15455;DHT22;21057;51.024;7.540;2022-08-25T01:44:11;22.70;65.40
15455;DHT22;21057;51.024;7.540;2022-08-25T01:46:38;22.60;66.40
15455;DHT22;21057;51.024;7.540;2022-08-25T01:49:05;22.60;66.10
15455;DHT22;21057;51.024;7.540;2022-08-25T01:51:42;22.50;66.20
15455;DHT22;21057;51.024;7.540;2022-08-25T01:54:10;22.40;66.50
15455;DHT22;21057;51.024;7.540;2022-08-25T01:56:37;22.30;66.70
15455;DHT22;21057;51.024;7.540;2022-08-25T01:59:04;22.20;68.00
15455;DHT22;21057;51.024;7.540;2022-08-25T02:01:31;22.20;68.10
15455;DHT22;21057;51.024;7.540;2022-08-25T02:03:58;22.20;68.40
15455;DHT22;21057;51.024;7.540;2022-08-25T02:06:27;22.10;68.80
15455;DHT22;21057;51.024;7.540;2022-08-25T02:08:58;22.10;69.30
15455;DHT22;21057;51.024;7.540;2022-08-25T02:11:27;22.10;68.90
15455;DHT22;21057;51.024;7.540;2022-08-25T02:13:54;22.10;69.40
15455;DHT22;21057;51.024;7.540;2022-08-25T02:16:24;22.00;69.60
15455;DHT22;21057;51.024;7.540;2022-08-25T02:18:53;22.00;69.50
15455;DHT22;21057;51.024;7.540;2022-08-25T02:21:20;22.00;70.00
15455;DHT22;21057;51.024;7.540;2022-08-25T02:23:47;21.90;70.60
15455;DHT22;21057;51.024;7.540;2022-08-25T02:26:15;22.00;70.70
15455;DHT22;21057;51.024;7.540;2022-08-25T02:28:45;22.00;71.20
15455;DHT22;21057;51.024;7.540;2022-08-25T02:31:12;22.10;71.10
15455;DHT22;21057;51.024;7.540;2022-08-25T02:33:40;22.10;71.10
15455;DHT22;21057;51.024;7.540;2022-08-25T02:36:07;22.10;71.20
15455;DHT22;21057;51.024;7.540;2022-08-25T02:38:35;22.00;72.00
15455;DHT22;21057;51.024;7.540;2022-08-25T02:41:08;22.00;71.90
15455;DHT22;21057;51.024;7.540;2022-08-25T02:43:36;22.00;72.00
15455;DHT22;21057;51.024;7.540;2022-08-25T02:46:05;22.00;72.80
15455;DHT22;21057;51.024;7.540;2022-08-25T02:48:32;21.90;73.20
15455;DHT22;21057;51.024;7.540;2022-08-25T02:51:00;21.90;72.90
15455;DHT22;21057;51.024;7.540;2022-08-25T02:53:28;21.80;73.50
15455;DHT22;21057;51.024;7.540;2022-08-25T02:55:55;21.70;73.80
15455;DHT22;21057;51.024;7.540;2022-08-25T02:58:22;21.70;74.10
15455;DHT22;21057;51.024;7.540;2022-08-25T03:00:49;21.70;74.20
15455;DHT22;21057;51.024;7.540;2022-08-25T03:03:18;21.70;74.40
15455;DHT22;21057;51.024;7.540;2022-08-25T03:05:46;21.70;74.70
15455;DHT22;21057;51.024;7.540;2022-08-25T03:08:14;21.70;74.60
15455;DHT22;21057;51.024;7.540;2022-08-25T03:10:42;21.70;75.20
15455;DHT22;21057;51.024;7.540;2022-08-25T03:13:09;21.70;75.40
15455;DHT22;21057;51.024;7.540;2022-08-25T03:15:36;21.70;75.50
15455;DHT22;21057;51.024;7.540;2022-08-25T03:18:04;21.60;76.10
15455;DHT22;21057;51.024;7.540;2022-08-25T03:20:33;21.70;76.60
15455;DHT22;21057;51.024;7.540;2022-08-25T03:23:00;21.70;76.80
15455;DHT22;21057;51.024;7.540;2022-08-25T03:25:28;21.70;76.90
15455;DHT22;21057;51.024;7.540;2022-08-25T03:28:09;21.70;76.70
15455;DHT22;21057;51.024;7.540;2022-08-25T03:30:36;21.70;77.50
15455;DHT22;21057;51.024;7.540;2022-08-25T03:33:03;21.70;77.90
15455;DHT22;21057;51.024;7.540;2022-08-25T03:35:30;21.80;77.60
15455;DHT22;21057;51.024;7.540;2022-08-25T03:37:58;21.80;77.50
15455;DHT22;21057;51.024;7.540;2022-08-25T03:40:26;21.70;78.00
15455;DHT22;21057;51.024;7.540;2022-08-25T03:42:53;21.70;78.50
15455;DHT22;21057;51.024;7.540;2022-08-25T03:45:23;21.70;78.70
15455;DHT22;21057;51.024;7.540;2022-08-25T03:47:51;21.80;78.40
15455;DHT22;21057;51.024;7.540;2022-08-25T03:50:19;21.70;79.00
15455;DHT22;21057;51.024;7.540;2022-08-25T03:52:50;21.70;79.30
15455;DHT22;21057;51.024;7.540;2022-08-25T03:55:21;21.70;79.70
15455;DHT22;21057;51.024;7.540;2022-08-25T03:57:48;21.60;80.00
15455;DHT22;21057;51.024;7.540;2022-08-25T04:00:16;21.60;79.90
15455;DHT22;21057;51.024;7.540;2022-08-25T04:02:43;21.50;81.00
15455;DHT22;21057;51.024;7.540;2022-08-25T04:05:11;21.60;80.90
15455;DHT22;21057;51.024;7.540;2022-08-25T04:07:38;21.60;81.30
15455;DHT22;21057;51.024;7.540;2022-08-25T04:10:07;21.60;81.50
15455;DHT22;21057;51.024;7.540;2022-08-25T04:12:37;21.60;81.90
15455;DHT22;21057;51.024;7.540;2022-08-25T04:15:06;21.70;82.00
15455;DHT22;21057;51.024;7.540;2022-08-25T04:17:36;21.70;82.30
15455;DHT22;21057;51.024;7.540;2022-08-25T04:20:05;21.60;82.40
15455;DHT22;21057;51.024;7.540;2022-08-25T04:22:33;21.60;83.20
15455;DHT22;21057;51.024;7.540;2022-08-25T04:25:01;21.60;84.30
15455;DHT22;21057;51.024;7.540;2022-08-25T04:27:28;21.60;83.90
15455;DHT22;21057;51.024;7.540;2022-08-25T04:29:56;21.60;84.00
15455;DHT22;21057;51.024;7.540;2022-08-25T04:32:23;21.50;84.80
15455;DHT22;21057;51.024;7.540;2022-08-25T04:34:50;21.50;85.10
15455;DHT22;21057;51.024;7.540;2022-08-25T04:37:17;21.50;86.20
15455;DHT22;21057;51.024;7.540;2022-08-25T04:39:45;21.60;85.50
15455;DHT22;21057;51.024;7.540;2022-08-25T04:42:11;21.70;84.90
15455;DHT22;21057;51.024;7.540;2022-08-25T04:44:38;21.70;85.50
15455;DHT22;21057;51.024;7.540;2022-08-25T04:47:07;21.60;85.70
15455;DHT22;21057;51.024;7.540;2022-08-25T04:49:35;21.60;86.80
15455;DHT22;21057;51.024;7.540;2022-08-25T04:52:03;21.50;86.70
15455;DHT22;21057;51.024;7.540;2022-08-25T04:54:30;21.50;87.50
15455;DHT22;21057;51.024;7.540;2022-08-25T04:56:57;21.50;87.70
15455;DHT22;21057;51.024;7.540;2022-08-25T04:59:24;21.50;88.50
15455;DHT22;21057;51.024;7.540;2022-08-25T05:01:51;21.40;88.80
15455;DHT22;21057;51.024;7.540;2022-08-25T05:04:21;21.40;89.40
15455;DHT22;21057;51.024;7.540;2022-08-25T05:06:48;21.40;89.80
15455;DHT22;21057;51.024;7.540;2022-08-25T05:09:15;21.50;89.50
15455;DHT22;21057;51.024;7.540;2022-08-25T05:11:42;21.50;89.60
15455;DHT22;21057;51.024;7.540;2022-08-25T05:14:09;21.50;90.00
15455;DHT22;21057;51.024;7.540;2022-08-25T05:16:39;21.60;90.00
15455;DHT22;21057;51.024;7.540;2022-08-25T05:19:06;21.60;90.10
15455;DHT22;21057;51.024;7.540;2022-08-25T05:21:35;21.60;90.10
15455;DHT22;21057;51.024;7.540;2022-08-25T05:24:03;21.60;90.30
15455;DHT22;21057;51.024;7.540;2022-08-25T05:26:31;21.70;90.20
15455;DHT22;21057;51.024;7.540;2022-08-25T05:29:00;21.80;90.20
15455;DHT22;21057;51.024;7.540;2022-08-25T05:31:30;22.00;90.40
15455;DHT22;21057;51.024;7.540;2022-08-25T05:33:57;22.00;90.30
15455;DHT22;21057;51.024;7.540;2022-08-25T05:36:26;22.10;90.10
15455;DHT22;21057;51.024;7.540;2022-08-25T05:38:55;22.10;90.20
15455;DHT22;21057;51.024;7.540;2022-08-25T05:41:25;22.30;90.30
15455;DHT22;21057;51.024;7.540;2022-08-25T05:43:53;22.40;90.30
15455;DHT22;21057;51.024;7.540;2022-08-25T05:46:20;22.40;90.00
15455;DHT22;21057;51.024;7.540;2022-08-25T05:48:48;22.50;90.00
15455;DHT22;21057;51.024;7.540;2022-08-25T05:51:15;22.50;90.00
15455;DHT22;21057;51.024;7.540;2022-08-25T05:53:44;22.40;90.50
15455;DHT22;21057;51.024;7.540;2022-08-25T05:56:12;22.40;90.30
15455;DHT22;21057;51.024;7.540;2022-08-25T05:58:40;22.50;90.30
15455;DHT22;21057;51.024;7.540;2022-08-25T06:01:08;22.60;90.30
15455;DHT22;21057;51.024;7.540;2022-08-25T06:03:53;22.60;90.30
15455;DHT22;21057;51.024;7.540;2022-08-25T06:06:20;22.60;90.40
15455;DHT22;21057;51.024;7.540;2022-08-25T06:08:47;22.70;90.60
15455;DHT22;21057;51.024;7.540;2022-08-25T06:11:17;22.70;90.40
15455;DHT22;21057;51.024;7.540;2022-08-25T06:13:44;22.70;90.40
15455;DHT22;21057;51.024;7.540;2022-08-25T06:16:11;22.90;90.40
15455;DHT22;21057;51.024;7.540;2022-08-25T06:18:38;23.00;90.30
15455;DHT22;21057;51.024;7.540;2022-08-25T06:21:09;23.10;89.80
15455;DHT22;21057;51.024;7.540;2022-08-25T06:23:37;23.10;90.30
15455;DHT22;21057;51.024;7.540;2022-08-25T06:26:05;23.20;88.80
15455;DHT22;21057;51.024;7.540;2022-08-25T06:28:33;23.20;89.10
15455;DHT22;21057;51.024;7.540;2022-08-25T06:31:01;23.40;89.50
15455;DHT22;21057;51.024;7.540;2022-08-25T06:33:28;23.40;89.00
15455;DHT22;21057;51.024;7.540;2022-08-25T06:35:55;23.50;89.10
15455;DHT22;21057;51.024;7.540;2022-08-25T06:38:23;23.60;89.30
15455;DHT22;21057;51.024;7.540;2022-08-25T06:40:51;23.80;88.80
15455;DHT22;21057;51.024;7.540;2022-08-25T06:43:18;24.00;87.90
15455;DHT22;21057;51.024;7.540;2022-08-25T06:45:46;23.90;88.00
15455;DHT22;21057;51.024;7.540;2022-08-25T06:48:13;24.10;87.70
15455;DHT22;21057;51.024;7.540;2022-08-25T06:50:41;24.20;87.60
15455;DHT22;21057;51.024;7.540;2022-08-25T06:53:09;24.40;85.80
15455;DHT22;21057;51.024;7.540;2022-08-25T06:55:36;24.60;85.20
15455;DHT22;21057;51.024;7.540;2022-08-25T06:58:04;24.60;84.60
15455;DHT22;21057;51.024;7.540;2022-08-25T07:00:31;24.70;85.20
15455;DHT22;21057;51.024;7.540;2022-08-25T07:03:00;24.80;85.20
15455;DHT22;21057;51.024;7.540;2022-08-25T07:05:27;24.80;85.80
15455;DHT22;21057;51.024;7.540;2022-08-25T07:07:55;24.90;83.90
15455;DHT22;21057;51.024;7.540;2022-08-25T07:10:22;25.00;84.10
15455;DHT22;21057;51.024;7.540;2022-08-25T07:12:49;25.00;84.80
15455;DHT22;21057;51.024;7.540;2022-08-25T07:15:16;25.00;84.30
15455;DHT22;21057;51.024;7.540;2022-08-25T07:17:43;25.10;83.40
15455;DHT22;21057;51.024;7.540;2022-08-25T07:20:12;25.20;84.00
15455;DHT22;21057;51.024;7.540;2022-08-25T07:22:39;25.40;83.40
15455;DHT22;21057;51.024;7.540;2022-08-25T07:25:06;25.40;83.50
15455;DHT22;21057;51.024;7.540;2022-08-25T07:27:33;25.50;83.30
15455;DHT22;21057;51.024;7.540;2022-08-25T07:30:00;25.60;82.50
15455;DHT22;21057;51.024;7.540;2022-08-25T07:32:27;25.60;83.30
15455;DHT22;21057;51.024;7.540;2022-08-25T07:34:54;25.60;82.50
15455;DHT22;21057;51.024;7.540;2022-08-25T07:37:40;25.80;83.10
15455;DHT22;21057;51.024;7.540;2022-08-25T07:40:10;25.90;83.10
15455;DHT22;21057;51.024;7.540;2022-08-25T07:42:37;26.10;82.20
15455;DHT22;21057;51.024;7.540;2022-08-25T07:45:05;26.30;80.00
15455;DHT22;21057;51.024;7.540;2022-08-25T07:47:32;26.20;82.00
15455;DHT22;21057;51.024;7.540;2022-08-25T07:49:59;26.30;81.00
15455;DHT22;21057;51.024;7.540;2022-08-25T07:52:26;26.40;81.50
15455;DHT22;21057;51.024;7.540;2022-08-25T07:54:55;26.50;80.40
15455;DHT22;21057;51.024;7.540;2022-08-25T07:57:22;26.70;80.80
15455;DHT22;21057;51.024;7.540;2022-08-25T07:59:51;26.70;80.30
15455;DHT22;21057;51.024;7.540;2022-08-25T08:02:18;26.90;78.70
15455;DHT22;21057;51.024;7.540;2022-08-25T08:04:47;26.90;79.20
15455;DHT22;21057;51.024;7.540;2022-08-25T08:07:15;27.00;79.90
15455;DHT22;21057;51.024;7.540;2022-08-25T08:09:43;27.20;78.50
15455;DHT22;21057;51.024;7.540;2022-08-25T08:12:11;27.30;77.90
15455;DHT22;21057;51.024;7.540;2022-08-25T08:14:38;27.40;75.10
15455;DHT22;21057;51.024;7.540;2022-08-25T08:17:06;27.30;74.70
15455;DHT22;21057;51.024;7.540;2022-08-25T08:19:33;27.30;75.00
15455;DHT22;21057;51.024;7.540;2022-08-25T08:22:01;27.40;74.70
15455;DHT22;21057;51.024;7.540;2022-08-25T08:24:28;27.60;74.20
15455;DHT22;21057;51.024;7.540;2022-08-25T08:26:55;27.90;71.80
15455;DHT22;21057;51.024;7.540;2022-08-25T08:29:23;28.00;72.50
15455;DHT22;21057;51.024;7.540;2022-08-25T08:31:51;28.00;72.70
15455;DHT22;21057;51.024;7.540;2022-08-25T08:34:18;27.90;71.90
15455;DHT22;21057;51.024;7.540;2022-08-25T08:36:45;28.00;71.90
15455;DHT22;21057;51.024;7.540;2022-08-25T08:39:12;28.10;71.40
15455;DHT22;21057;51.024;7.540;2022-08-25T08:41:49;28.30;69.90
15455;DHT22;21057;51.024;7.540;2022-08-25T08:47:36;28.70;69.00
15455;DHT22;21057;51.024;7.540;2022-08-25T08:50:17;28.70;68.40
15455;DHT22;21057;51.024;7.540;2022-08-25T08:52:49;28.60;69.80
15455;DHT22;21057;51.024;7.540;2022-08-25T08:55:22;28.70;70.60
15455;DHT22;21057;51.024;7.540;2022-08-25T08:57:54;28.90;66.60
15455;DHT22;21057;51.024;7.540;2022-08-25T09:00:24;29.20;68.20
15455;DHT22;21057;51.024;7.540;2022-08-25T09:02:56;29.30;67.10
15455;DHT22;21057;51.024;7.540;2022-08-25T09:05:27;29.20;66.00
15455;DHT22;21057;51.024;7.540;2022-08-25T09:07:58;29.30;65.90
15455;DHT22;21057;51.024;7.540;2022-08-25T09:10:33;29.60;68.50
15455;DHT22;21057;51.024;7.540;2022-08-25T09:13:10;29.60;66.20
15455;DHT22;21057;51.024;7.540;2022-08-25T09:15:43;29.70;65.90
15455;DHT22;21057;51.024;7.540;2022-08-25T09:18:38;29.50;65.10
15455;DHT22;21057;51.024;7.540;2022-08-25T09:21:12;29.70;66.40
15455;DHT22;21057;51.024;7.540;2022-08-25T09:23:51;29.80;65.70
15455;DHT22;21057;51.024;7.540;2022-08-25T09:26:27;29.80;63.30
15455;DHT22;21057;51.024;7.540;2022-08-25T09:29:01;29.80;64.40
15455;DHT22;21057;51.024;7.540;2022-08-25T09:31:32;30.00;66.80
15455;DHT22;21057;51.024;7.540;2022-08-25T09:34:02;30.10;66.00
15455;DHT22;21057;51.024;7.540;2022-08-25T09:36:30;30.30;64.50
15455;DHT22;21057;51.024;7.540;2022-08-25T09:38:58;30.30;63.30
15455;DHT22;21057;51.024;7.540;2022-08-25T09:41:41;30.60;61.50
15455;DHT22;21057;51.024;7.540;2022-08-25T09:44:17;30.90;64.50
15455;DHT22;21057;51.024;7.540;2022-08-25T09:46:59;30.90;59.70
15455;DHT22;21057;51.024;7.540;2022-08-25T09:49:35;31.10;61.30
15455;DHT22;21057;51.024;7.540;2022-08-25T09:52:23;31.20;60.10
15455;DHT22;21057;51.024;7.540;2022-08-25T09:54:52;31.50;58.90
15455;DHT22;21057;51.024;7.540;2022-08-25T09:57:31;31.50;58.50
15455;DHT22;21057;51.024;7.540;2022-08-25T10:00:11;31.80;56.00
15455;DHT22;21057;51.024;7.540;2022-08-25T10:02:40;32.20;56.30
15455;DHT22;21057;51.024;7.540;2022-08-25T10:05:26;32.50;56.80
15455;DHT22;21057;51.024;7.540;2022-08-25T10:07:58;32.60;52.60
15455;DHT22;21057;51.024;7.540;2022-08-25T10:10:30;32.80;53.40
15455;DHT22;21057;51.024;7.540;2022-08-25T10:12:58;32.70;54.00
15455;DHT22;21057;51.024;7.540;2022-08-25T10:15:29;33.00;53.30
15455;DHT22;21057;51.024;7.540;2022-08-25T10:18:18;33.40;54.60
15455;DHT22;21057;51.024;7.540;2022-08-25T10:21:05;34.10;53.30
15455;DHT22;21057;51.024;7.540;2022-08-25T10:23:35;34.90;49.60
15455;DHT22;21057;51.024;7.540;2022-08-25T10:26:06;35.30;48.70
15455;DHT22;21057;51.024;7.540;2022-08-25T10:28:43;35.20;46.10
15455;DHT22;21057;51.024;7.540;2022-08-25T10:31:16;35.50;47.80
15455;DHT22;21057;51.024;7.540;2022-08-25T10:33:57;35.70;46.30
15455;DHT22;21057;51.024;7.540;2022-08-25T10:36:34;35.60;43.20
15455;DHT22;21057;51.024;7.540;2022-08-25T10:39:04;35.80;45.30
15455;DHT22;21057;51.024;7.540;2022-08-25T10:41:45;36.40;43.40
15455;DHT22;21057;51.024;7.540;2022-08-25T10:44:19;36.50;43.50
15455;DHT22;21057;51.024;7.540;2022-08-25T10:50:04;36.70;43.00
15455;DHT22;21057;51.024;7.540;2022-08-25T10:52:38;36.80;41.70
15455;DHT22;21057;51.024;7.540;2022-08-25T10:55:15;36.80;41.70
15455;DHT22;21057;51.024;7.540;2022-08-25T10:57:50;37.30;39.50
15455;DHT22;21057;51.024;7.540;2022-08-25T11:00:20;37.20;39.80
15455;DHT22;21057;51.024;7.540;2022-08-25T11:03:12;37.40;39.30
15455;DHT22;21057;51.024;7.540;2022-08-25T11:05:47;37.90;40.00
15455;DHT22;21057;51.024;7.540;2022-08-25T11:08:20;38.20;38.80
15455;DHT22;21057;51.024;7.540;2022-08-25T11:10:52;38.40;38.90
15455;DHT22;21057;51.024;7.540;2022-08-25T11:13:29;38.40;35.70
15455;DHT22;21057;51.024;7.540;2022-08-25T11:16:00;38.70;37.30
15455;DHT22;21057;51.024;7.540;2022-08-25T11:18:30;38.30;35.00
15455;DHT22;21057;51.024;7.540;2022-08-25T11:21:05;38.30;35.00
15455;DHT22;21057;51.024;7.540;2022-08-25T11:23:36;38.50;35.00
15455;DHT22;21057;51.024;7.540;2022-08-25T11:26:08;38.70;33.30
15455;DHT22;21057;51.024;7.540;2022-08-25T11:28:48;38.80;34.00
15455;DHT22;21057;51.024;7.540;2022-08-25T11:31:18;38.30;35.10
15455;DHT22;21057;51.024;7.540;2022-08-25T11:33:48;38.40;32.70
15455;DHT22;21057;51.024;7.540;2022-08-25T11:36:23;38.70;33.80
15455;DHT22;21057;51.024;7.540;2022-08-25T11:39:02;38.70;34.00
15455;DHT22;21057;51.024;7.540;2022-08-25T11:41:36;39.10;33.70
15455;DHT22;21057;51.024;7.540;2022-08-25T11:44:32;38.40;33.00
15455;DHT22;21057;51.024;7.540;2022-08-25T11:47:20;38.60;34.00
15455;DHT22;21057;51.024;7.540;2022-08-25T11:49:56;39.10;33.80
15455;DHT22;21057;51.024;7.540;2022-08-25T11:52:51;38.40;32.00
15455;DHT22;21057;51.024;7.540;2022-08-25T11:55:25;38.90;34.40
15455;DHT22;21057;51.024;7.540;2022-08-25T11:58:14;39.20;33.40
15455;DHT22;21057;51.024;7.540;2022-08-25T12:00:43;39.70;32.10
15455;DHT22;21057;51.024;7.540;2022-08-25T12:03:44;39.70;34.20
15455;DHT22;21057;51.024;7.540;2022-08-25T12:06:22;39.90;32.80
15455;DHT22;21057;51.024;7.540;2022-08-25T12:11:51;40.10;33.20
15455;DHT22;21057;51.024;7.540;2022-08-25T12:14:43;40.30;33.70
15455;DHT22;21057;51.024;7.540;2022-08-25T12:17:22;40.20;32.70
15455;DHT22;21057;51.024;7.540;2022-08-25T12:19:57;40.00;31.60
15455;DHT22;21057;51.024;7.540;2022-08-25T12:22:56;39.90;33.50
15455;DHT22;21057;51.024;7.540;2022-08-25T12:31:17;40.40;31.80
15455;DHT22;21057;51.024;7.540;2022-08-25T12:33:57;40.30;30.60
15455;DHT22;21057;51.024;7.540;2022-08-25T12:36:28;40.70;32.60
15455;DHT22;21057;51.024;7.540;2022-08-25T12:39:08;40.80;30.20
15455;DHT22;21057;51.024;7.540;2022-08-25T12:41:54;40.40;30.00
15455;DHT22;21057;51.024;7.540;2022-08-25T12:44:34;40.40;32.70
15455;DHT22;21057;51.024;7.540;2022-08-25T12:47:12;40.60;32.70
15455;DHT22;21057;51.024;7.540;2022-08-25T12:49:40;40.40;32.30
15455;DHT22;21057;51.024;7.540;2022-08-25T12:52:11;40.60;33.60
15455;DHT22;21057;51.024;7.540;2022-08-25T12:54:46;40.60;31.70
15455;DHT22;21057;51.024;7.540;2022-08-25T12:57:37;40.70;32.30
15455;DHT22;21057;51.024;7.540;2022-08-25T13:00:19;40.60;32.70
15455;DHT22;21057;51.024;7.540;2022-08-25T13:03:00;40.60;31.70
15455;DHT22;21057;51.024;7.540;2022-08-25T13:05:46;40.70;34.00
15455;DHT22;21057;51.024;7.540;2022-08-25T13:08:43;40.80;32.50
15455;DHT22;21057;51.024;7.540;2022-08-25T13:11:14;40.50;33.80
15455;DHT22;21057;51.024;7.540;2022-08-25T13:13:50;40.20;32.00
15455;DHT22;21057;51.024;7.540;2022-08-25T13:16:20;40.40;32.80
15455;DHT22;21057;51.024;7.540;2022-08-25T13:18:48;40.40;32.90
15455;DHT22;21057;51.024;7.540;2022-08-25T13:21:17;40.10;32.60
15455;DHT22;21057;51.024;7.540;2022-08-25T13:23:46;40.10;33.40
15455;DHT22;21057;51.024;7.540;2022-08-25T13:26:16;40.30;33.60
15455;DHT22;21057;51.024;7.540;2022-08-25T13:28:52;40.40;32.30
15455;DHT22;21057;51.024;7.540;2022-08-25T13:31:21;40.30;33.70
15455;DHT22;21057;51.024;7.540;2022-08-25T13:33:54;40.30;33.00
15455;DHT22;21057;51.024;7.540;2022-08-25T13:36:23;40.00;33.20
15455;DHT22;21057;51.024;7.540;2022-08-25T13:39:14;39.70;34.60
15455;DHT22;21057;51.024;7.540;2022-08-25T13:41:46;39.70;34.10
15455;DHT22;21057;51.024;7.540;2022-08-25T13:44:16;39.80;33.80
15455;DHT22;21057;51.024;7.540;2022-08-25T13:46:45;39.90;34.00
15455;DHT22;21057;51.024;7.540;2022-08-25T13:49:24;40.00;33.90
15455;DHT22;21057;51.024;7.540;2022-08-25T13:51:52;40.00;33.40
15455;DHT22;21057;51.024;7.540;2022-08-25T13:54:24;39.90;33.80
15455;DHT22;21057;51.024;7.540;2022-08-25T13:56:53;39.80;33.80
15455;DHT22;21057;51.024;7.540;2022-08-25T13:59:24;39.80;34.50
15455;DHT22;21057;51.024;7.540;2022-08-25T14:01:54;39.50;35.10
15455;DHT22;21057;51.024;7.540;2022-08-25T14:04:26;39.10;34.80
15455;DHT22;21057;51.024;7.540;2022-08-25T14:07:13;38.90;36.00
15455;DHT22;21057;51.024;7.540;2022-08-25T14:09:46;38.70;35.30
15455;DHT22;21057;51.024;7.540;2022-08-25T14:12:28;39.10;35.50
15455;DHT22;21057;51.024;7.540;2022-08-25T14:15:03;39.20;34.90
15455;DHT22;21057;51.024;7.540;2022-08-25T14:17:31;39.10;35.20
15455;DHT22;21057;51.024;7.540;2022-08-25T14:19:58;39.20;35.90
15455;DHT22;21057;51.024;7.540;2022-08-25T14:22:26;39.30;34.70
15455;DHT22;21057;51.024;7.540;2022-08-25T14:24:53;39.30;32.00
15455;DHT22;21057;51.024;7.540;2022-08-25T14:27:20;39.30;35.60
15455;DHT22;21057;51.024;7.540;2022-08-25T14:29:47;39.50;33.50
15455;DHT22;21057;51.024;7.540;2022-08-25T14:32:16;38.90;33.30
15455;DHT22;21057;51.024;7.540;2022-08-25T14:34:43;38.30;35.40
15455;DHT22;21057;51.024;7.540;2022-08-25T14:37:13;38.10;35.50
15455;DHT22;21057;51.024;7.540;2022-08-25T14:39:41;37.10;36.60
15455;DHT22;21057;51.024;7.540;2022-08-25T14:42:08;37.00;37.00
15455;DHT22;21057;51.024;7.540;2022-08-25T14:44:36;37.20;38.10
15455;DHT22;21057;51.024;7.540;2022-08-25T14:47:03;37.10;37.40
15455;DHT22;21057;51.024;7.540;2022-08-25T14:49:35;36.70;38.10
15455;DHT22;21057;51.024;7.540;2022-08-25T14:52:08;36.30;38.60
15455;DHT22;21057;51.024;7.540;2022-08-25T14:54:36;35.80;40.80
15455;DHT22;21057;51.024;7.540;2022-08-25T14:57:03;35.30;41.00
15455;DHT22;21057;51.024;7.540;2022-08-25T14:59:30;35.00;43.20
15455;DHT22;21057;51.024;7.540;2022-08-25T15:01:58;34.80;42.10
15455;DHT22;21057;51.024;7.540;2022-08-25T15:04:27;34.70;42.90
15455;DHT22;21057;51.024;7.540;2022-08-25T15:06:58;34.40;41.70
15455;DHT22;21057;51.024;7.540;2022-08-25T15:09:26;34.20;43.00
15455;DHT22;21057;51.024;7.540;2022-08-25T15:11:54;34.70;43.00
15455;DHT22;21057;51.024;7.540;2022-08-25T15:14:22;35.30;41.80
15455;DHT22;21057;51.024;7.540;2022-08-25T15:16:53;35.90;39.70
15455;DHT22;21057;51.024;7.540;2022-08-25T15:19:22;36.30;39.20
15455;DHT22;21057;51.024;7.540;2022-08-25T15:21:49;36.60;38.50
15455;DHT22;21057;51.024;7.540;2022-08-25T15:24:18;36.70;39.00
15455;DHT22;21057;51.024;7.540;2022-08-25T15:26:49;36.60;39.10
15455;DHT22;21057;51.024;7.540;2022-08-25T15:29:17;36.50;39.00
15455;DHT22;21057;51.024;7.540;2022-08-25T15:31:45;36.50;39.00
15455;DHT22;21057;51.024;7.540;2022-08-25T15:34:12;36.60;39.40
15455;DHT22;21057;51.024;7.540;2022-08-25T15:36:40;36.90;39.60
15455;DHT22;21057;51.024;7.540;2022-08-25T15:39:07;36.90;37.50
15455;DHT22;21057;51.024;7.540;2022-08-25T15:41:36;37.00;38.20
15455;DHT22;21057;51.024;7.540;2022-08-25T15:44:03;36.60;37.40
15455;DHT22;21057;51.024;7.540;2022-08-25T15:46:32;36.20;37.90
15455;DHT22;21057;51.024;7.540;2022-08-25T15:48:59;36.50;39.60
15455;DHT22;21057;51.024;7.540;2022-08-25T15:51:27;36.20;39.10
15455;DHT22;21057;51.024;7.540;2022-08-25T15:53:54;36.50;39.40
15455;DHT22;21057;51.024;7.540;2022-08-25T15:56:21;36.60;37.30
15455;DHT22;21057;51.024;7.540;2022-08-25T15:58:50;36.40;38.10
15455;DHT22;21057;51.024;7.540;2022-08-25T16:01:19;36.40;39.30
15455;DHT22;21057;51.024;7.540;2022-08-25T16:03:46;36.20;38.10
15455;DHT22;21057;51.024;7.540;2022-08-25T16:06:13;36.20;38.80
15455;DHT22;21057;51.024;7.540;2022-08-25T16:08:40;36.40;39.00